Time;durP1;ratioP1;P1;durP2;ratioP2;P2;SDS_P1;SDS_P2;PMS_P1;PMS_P2;Temp;Humidity;BMP_temperature;BMP_pressure;BME280_temperature;BME280_humidity;BME280_pressure;Samples;Min_cycle;Max_cycle;Signal;HPM_P1;HPM_P2
2022/06/24 00:00:09;;;;;;;1.58;1.48;;;19.50;99.90;;;;;;5034913;28;20041;-93
2022/06/24 00:02:36;;;;;;;5.85;1.50;;;19.50;99.90;;;;;;5037563;28;20370;-93
2022/06/24 00:05:06;;;;;;;2.67;1.33;;;19.50;99.90;;;;;;5037515;28;20489;-92
2022/06/24 00:07:47;;;;;;;6.00;1.40;;;19.50;99.90;;;;;;5035021;28;20529;-94
2022/06/24 00:10:15;;;;;;;2.42;1.45;;;19.40;99.90;;;;;;5037405;28;20469;-94
2022/06/24 00:12:40;;;;;;;2.90;1.50;;;19.40;99.90;;;;;;5036206;28;20037;-93
2022/06/24 00:15:07;;;;;;;3.05;1.45;;;19.40;99.90;;;;;;5033093;28;20029;-94
2022/06/24 00:17:33;;;;;;;2.22;1.40;;;19.40;99.90;;;;;;5033074;28;20044;-94
2022/06/24 00:20:05;;;;;;;2.25;1.30;;;19.40;99.90;;;;;;5032963;28;20022;-91
2022/06/24 00:22:39;;;;;;;4.97;1.50;;;19.40;99.90;;;;;;5032519;28;20561;-93
2022/06/24 00:25:10;;;;;;;4.43;1.40;;;19.40;99.90;;;;;;5032801;28;20022;-93
2022/06/24 00:27:37;;;;;;;2.40;1.70;;;19.30;99.90;;;;;;5032357;28;20041;-93
2022/06/24 00:30:13;;;;;;;4.65;1.60;;;19.40;99.90;;;;;;5030584;28;20030;-91
2022/06/24 00:32:41;;;;;;;3.67;1.50;;;19.30;99.90;;;;;;5032216;28;20025;-89
2022/06/24 00:35:12;;;;;;;2.28;1.50;;;19.30;99.90;;;;;;5030828;28;20040;-92
2022/06/24 00:37:40;;;;;;;2.03;1.48;;;19.30;99.90;;;;;;5031741;28;20493;-93
2022/06/24 00:40:09;;;;;;;4.30;1.58;;;19.30;99.90;;;;;;5029622;28;20072;-93
2022/06/24 00:42:43;;;;;;;2.17;1.50;;;19.30;99.90;;;;;;5031305;28;20421;-93
2022/06/24 00:45:38;;;;;;;2.25;1.55;;;19.30;99.90;;;;;;5032438;28;20382;-91
2022/06/24 00:48:13;;;;;;;3.15;1.65;;;19.40;99.90;;;;;;5031590;28;20034;-92
2022/06/24 00:50:44;;;;;;;3.63;1.60;;;19.40;99.90;;;;;;5029446;28;20497;-91
2022/06/24 00:53:10;;;;;;;3.35;1.40;;;19.40;99.90;;;;;;5030775;28;20032;-92
2022/06/24 00:55:37;;;;;;;3.78;1.50;;;19.40;99.90;;;;;;5029993;28;20031;-89
2022/06/24 00:58:04;;;;;;;4.85;1.80;;;19.50;99.90;;;;;;5030127;28;20029;-86
2022/06/24 01:00:33;;;;;;;3.13;1.50;;;19.40;99.90;;;;;;5029837;28;20485;-93
2022/06/24 01:03:01;;;;;;;2.92;1.50;;;19.40;99.90;;;;;;5031435;28;20029;-94
2022/06/24 01:05:28;;;;;;;1.88;1.30;;;19.40;99.90;;;;;;5031826;28;20029;-92
2022/06/24 01:07:54;;;;;;;1.67;1.25;;;19.40;99.90;;;;;;5033613;28;20025;-89
2022/06/24 01:10:20;;;;;;;2.88;1.40;;;19.40;99.90;;;;;;5031487;28;20030;-90
2022/06/24 01:12:46;;;;;;;6.25;1.50;;;19.40;99.90;;;;;;5029471;28;20026;-85
2022/06/24 01:15:12;;;;;;;2.92;1.60;;;19.40;99.90;;;;;;5029731;28;20025;-85
2022/06/24 01:17:38;;;;;;;2.63;1.40;;;19.40;99.90;;;;;;5045098;28;20048;-89
2022/06/24 01:20:07;;;;;;;3.55;1.40;;;19.40;99.90;;;;;;5050359;28;20030;-85
2022/06/24 01:22:32;;;;;;;5.35;1.50;;;19.40;99.90;;;;;;5041529;28;20073;-85
2022/06/24 01:24:58;;;;;;;2.05;1.27;;;19.30;99.90;;;;;;5039342;28;20029;-86
2022/06/24 01:27:24;;;;;;;2.42;1.15;;;19.30;99.90;;;;;;5033788;28;20030;-85
2022/06/24 01:29:50;;;;;;;3.38;1.30;;;19.40;99.90;;;;;;5030528;28;20123;-94
2022/06/24 01:32:16;;;;;;;3.30;1.40;;;19.40;99.90;;;;;;5028982;28;20110;-92
2022/06/24 01:34:41;;;;;;;3.33;1.40;;;19.40;99.90;;;;;;5030274;28;20075;-90
2022/06/24 01:37:07;;;;;;;7.20;1.63;;;19.40;99.90;;;;;;5030576;28;20049;-92
2022/06/24 01:39:33;;;;;;;5.20;1.48;;;19.30;99.90;;;;;;5032447;28;20033;-93
2022/06/24 01:41:58;;;;;;;3.47;1.30;;;19.30;99.90;;;;;;5032728;28;20044;-86
2022/06/24 01:44:25;;;;;;;2.63;1.15;;;19.30;99.90;;;;;;5031119;28;20032;-90
2022/06/24 01:46:54;;;;;;;2.92;1.50;;;19.30;99.90;;;;;;5032859;28;20109;-89
2022/06/24 01:49:20;;;;;;;5.13;1.40;;;19.30;99.90;;;;;;5030012;28;20576;-88
2022/06/24 01:51:50;;;;;;;2.28;1.42;;;19.30;99.90;;;;;;5030515;28;20112;-86
2022/06/24 01:54:16;;;;;;;4.57;1.45;;;19.20;99.90;;;;;;5028972;28;20485;-86
2022/06/24 01:56:42;;;;;;;3.90;1.45;;;19.20;99.90;;;;;;5029110;28;20063;-89
2022/06/24 01:59:08;;;;;;;3.60;1.33;;;19.20;99.90;;;;;;5028606;28;20022;-90
2022/06/24 02:01:33;;;;;;;3.70;1.60;;;19.20;99.90;;;;;;5030721;28;20044;-88
2022/06/24 02:03:59;;;;;;;1.60;1.50;;;19.20;99.90;;;;;;5034806;28;20084;-91
2022/06/24 02:06:25;;;;;;;3.75;1.77;;;19.20;99.90;;;;;;5033397;28;20397;-90
2022/06/24 02:08:51;;;;;;;3.42;1.60;;;19.20;99.90;;;;;;5033342;28;20253;-91
2022/06/24 02:14:04;;;;;;;3.15;1.70;;;19.20;99.90;;;;;;5033916;28;20044;-89
2022/06/24 02:16:31;;;;;;;2.83;1.70;;;19.20;99.90;;;;;;5033739;28;20028;-92
2022/06/24 02:18:57;;;;;;;3.85;1.40;;;19.10;99.90;;;;;;5032728;28;20397;-92
2022/06/24 02:21:24;;;;;;;6.82;1.70;;;19.10;99.90;;;;;;5015838;28;20551;-92
2022/06/24 02:23:51;;;;;;;2.50;1.40;;;19.10;99.90;;;;;;5013587;28;20049;-91
2022/06/24 02:26:17;;;;;;;3.65;1.60;;;19.10;99.90;;;;;;5012417;28;20592;-93
2022/06/24 02:28:42;;;;;;;3.33;1.50;;;19.10;99.90;;;;;;5025951;28;20014;-93
2022/06/24 02:31:08;;;;;;;2.85;1.55;;;19.10;99.90;;;;;;5032518;28;20069;-92
2022/06/24 02:33:34;;;;;;;3.97;1.63;;;19.10;99.90;;;;;;5033177;28;20020;-90
2022/06/24 02:36:00;;;;;;;3.65;1.70;;;19.00;99.90;;;;;;5034058;28;20427;-93
2022/06/24 02:38:26;;;;;;;1.98;1.48;;;19.00;99.90;;;;;;5033436;28;20026;-88
2022/06/24 02:40:52;;;;;;;3.47;1.67;;;18.90;99.90;;;;;;5033020;28;20029;-87
2022/06/24 02:43:24;;;;;;;2.97;1.73;;;18.90;99.90;;;;;;5032015;28;20037;-88
2022/06/24 02:46:11;;;;;;;3.97;1.70;;;18.80;99.90;;;;;;5031998;28;20028;-92
2022/06/24 02:48:39;;;;;;;3.33;1.52;;;18.90;99.90;;;;;;5028502;28;20065;-88
2022/06/24 02:51:13;;;;;;;5.57;1.98;;;18.90;99.90;;;;;;5032989;28;20119;-91
2022/06/24 02:53:39;;;;;;;4.20;1.60;;;18.90;99.90;;;;;;5032050;28;20041;-92
2022/06/24 02:56:10;;;;;;;4.68;1.80;;;18.90;99.90;;;;;;5032292;28;20092;-86
2022/06/24 02:58:37;;;;;;;4.10;1.70;;;18.90;99.90;;;;;;5033151;28;20030;-90
2022/06/24 03:01:03;;;;;;;2.75;1.70;;;18.90;99.90;;;;;;5033436;28;20033;-90
2022/06/24 03:03:30;;;;;;;4.38;1.92;;;18.90;99.90;;;;;;5034132;28;20026;-89
2022/06/24 03:05:56;;;;;;;5.28;1.80;;;18.90;99.90;;;;;;5034059;28;20079;-89
2022/06/24 03:08:23;;;;;;;8.18;1.80;;;18.90;99.90;;;;;;5026027;28;20441;-89
2022/06/24 03:10:49;;;;;;;4.05;1.70;;;18.90;99.90;;;;;;5032720;28;20031;-87
2022/06/24 03:13:16;;;;;;;5.35;2.00;;;18.90;99.90;;;;;;5021188;28;20018;-87
2022/06/24 03:15:43;;;;;;;4.88;1.80;;;18.90;99.90;;;;;;5030903;28;20077;-92
2022/06/24 03:18:10;;;;;;;3.37;1.73;;;18.90;99.90;;;;;;5015114;28;20112;-87
2022/06/24 03:20:35;;;;;;;6.57;2.00;;;18.80;99.90;;;;;;5010718;28;20378;-88
2022/06/24 03:23:01;;;;;;;3.90;2.00;;;18.90;99.90;;;;;;5026128;28;20504;-86
2022/06/24 03:25:27;;;;;;;3.55;2.10;;;18.90;99.90;;;;;;5031085;28;20026;-90
2022/06/24 03:27:53;;;;;;;3.75;2.03;;;18.80;99.90;;;;;;5031204;28;20527;-88
2022/06/24 03:30:19;;;;;;;6.85;2.30;;;18.80;99.90;;;;;;5031506;28;20036;-92
2022/06/24 03:32:44;;;;;;;6.20;2.10;;;18.80;99.90;;;;;;5032700;28;20045;-94
2022/06/24 03:35:10;;;;;;;4.05;1.95;;;18.80;99.90;;;;;;5031356;28;20025;-94
2022/06/24 03:37:37;;;;;;;4.43;2.08;;;18.80;99.90;;;;;;5033037;28;20370;-85
2022/06/24 03:40:03;;;;;;;7.43;2.28;;;18.70;99.90;;;;;;5031202;28;20033;-89
2022/06/24 03:42:29;;;;;;;4.28;2.00;;;18.70;99.90;;;;;;5032026;28;20113;-88
2022/06/24 03:44:54;;;;;;;4.47;2.50;;;18.80;99.90;;;;;;5031737;28;20097;-89
2022/06/24 03:47:20;;;;;;;9.25;2.83;;;18.70;99.90;;;;;;5031905;28;20092;-87
2022/06/24 03:49:46;;;;;;;4.22;2.33;;;18.60;99.90;;;;;;5031748;28;20028;-92
2022/06/24 03:52:12;;;;;;;5.20;2.40;;;18.70;99.90;;;;;;5031919;28;20029;-88
2022/06/24 03:54:38;;;;;;;5.85;2.30;;;18.70;99.90;;;;;;5031832;28;20037;-86
2022/06/24 03:57:05;;;;;;;3.42;2.30;;;18.70;99.90;;;;;;5033295;28;20025;-89
2022/06/24 03:59:30;;;;;;;2.67;2.38;;;18.60;99.90;;;;;;5038738;28;20045;-92
2022/06/24 04:01:58;;;;;;;3.40;2.65;;;18.70;99.90;;;;;;5052834;28;20427;-92
2022/06/24 04:04:24;;;;;;;5.82;2.70;;;18.70;99.90;;;;;;5052930;28;20025;-85
2022/06/24 04:06:50;;;;;;;5.60;2.70;;;18.60;99.90;;;;;;5046543;28;20104;-93
2022/06/24 04:09:16;;;;;;;5.15;2.70;;;18.70;99.90;;;;;;5037533;28;20082;-93
2022/06/24 04:11:41;;;;;;;4.95;2.50;;;18.60;99.90;;;;;;5033882;28;20108;-94
2022/06/24 04:14:08;;;;;;;4.65;3.00;;;18.70;99.90;;;;;;5033212;28;20025;-92
2022/06/24 04:16:34;;;;;;;7.13;3.10;;;18.60;99.90;;;;;;5032233;28;20032;-92
2022/06/24 04:19:00;;;;;;;6.18;3.03;;;18.50;99.90;;;;;;5030558;28;20104;-87
2022/06/24 04:21:27;;;;;;;4.65;2.90;;;18.40;99.90;;;;;;5025241;28;20037;-91
2022/06/24 04:23:52;;;;;;;4.85;2.70;;;18.50;99.90;;;;;;5010980;28;20026;-92
2022/06/24 04:26:19;;;;;;;6.82;2.88;;;18.60;99.90;;;;;;5010751;28;20114;-92
2022/06/24 04:28:46;;;;;;;2.95;2.67;;;18.50;99.90;;;;;;5011482;28;20120;-93
2022/06/24 04:31:12;;;;;;;5.50;3.05;;;18.60;99.90;;;;;;5011498;28;20026;-92
2022/06/24 04:33:38;;;;;;;5.85;3.33;;;18.50;99.90;;;;;;5012247;28;20113;-90
2022/06/24 04:36:14;;;;;;;5.80;2.88;;;18.50;99.90;;;;;;5012003;28;20120;-91
2022/06/24 04:38:41;;;;;;;4.93;3.15;;;18.50;99.90;;;;;;5011144;28;20026;-90
2022/06/24 04:41:11;;;;;;;7.13;2.78;;;18.50;99.90;;;;;;5010280;28;20045;-88
2022/06/24 04:43:37;;;;;;;4.60;2.65;;;18.50;99.90;;;;;;5011960;28;20022;-89
2022/06/24 04:46:03;;;;;;;6.35;3.30;;;18.50;99.90;;;;;;5010819;28;20033;-92
2022/06/24 04:48:28;;;;;;;5.90;2.80;;;18.60;99.90;;;;;;5010317;28;20268;-92
2022/06/24 04:50:54;;;;;;;4.07;2.80;;;18.50;99.90;;;;;;5009952;28;20033;-93
2022/06/24 04:53:20;;;;;;;5.07;3.03;;;18.50;99.90;;;;;;5011080;28;20402;-93
2022/06/24 04:55:45;;;;;;;7.18;3.30;;;18.40;99.90;;;;;;5010653;28;20148;-90
2022/06/24 04:58:11;;;;;;;7.68;3.08;;;18.50;99.90;;;;;;5010201;28;20022;-89
2022/06/24 05:00:37;;;;;;;5.47;3.05;;;18.50;99.90;;;;;;5011675;28;20393;-92
2022/06/24 05:03:03;;;;;;;6.60;3.10;;;18.50;99.90;;;;;;5011908;28;20018;-92
2022/06/24 05:05:29;;;;;;;5.60;3.20;;;18.40;99.90;;;;;;5018659;28;20028;-91
2022/06/24 05:07:54;;;;;;;3.42;3.13;;;18.40;99.90;;;;;;5028009;28;20038;-93
2022/06/24 05:10:20;;;;;;;6.72;2.97;;;18.30;99.90;;;;;;5028558;28;20021;-92
2022/06/24 05:12:46;;;;;;;5.47;3.10;;;18.40;99.90;;;;;;5028762;28;20079;-93
2022/06/24 05:15:11;;;;;;;6.95;3.05;;;18.40;99.90;;;;;;5029446;28;20033;-90
2022/06/24 05:17:37;;;;;;;3.85;3.00;;;18.40;99.90;;;;;;5029733;28;20083;-93
2022/06/24 05:20:03;;;;;;;5.07;3.05;;;18.40;99.90;;;;;;5027466;28;20409;-93
2022/06/24 05:22:29;;;;;;;5.72;3.17;;;18.40;99.90;;;;;;5028831;28;20026;-92
2022/06/24 05:24:54;;;;;;;6.95;3.17;;;18.40;99.90;;;;;;5029193;28;20033;-87
2022/06/24 05:27:20;;;;;;;5.40;3.00;;;18.50;99.90;;;;;;5027909;28;20021;-93
2022/06/24 05:29:46;;;;;;;6.22;3.00;;;18.50;99.90;;;;;;5030037;28;20072;-93
2022/06/24 05:32:11;;;;;;;8.35;3.20;;;18.50;99.90;;;;;;5038716;28;20045;-86
2022/06/24 05:34:58;;;;;;;8.18;3.72;;;18.60;99.90;;;;;;5047654;28;20033;-92
2022/06/24 05:37:24;;;;;;;7.32;3.22;;;18.60;99.90;;;;;;5048084;28;20045;-93
2022/06/24 05:39:49;;;;;;;11.75;4.20;;;18.70;99.90;;;;;;5064719;22;20469;-86
2022/06/24 05:42:32;;;;;;;6.25;3.50;;;18.80;99.90;;;;;;5076922;28;20024;-86
2022/06/24 05:44:58;;;;;;;6.28;3.80;;;18.80;99.90;;;;;;5060185;28;20009;-87
2022/06/24 05:47:24;;;;;;;7.45;3.63;;;18.80;99.90;;;;;;5061457;28;20036;-87
2022/06/24 05:49:53;;;;;;;10.20;4.18;;;18.80;99.90;;;;;;5073554;28;20025;-86
2022/06/24 05:55:02;;;;;;;10.23;4.03;;;18.90;99.90;;;;;;5071031;28;20037;-87
2022/06/24 05:55:10;;;;;;;11.65;4.57;;;18.90;99.90;;;;;;5074205;28;20010;-91
2022/06/24 05:57:36;;;;;;;8.07;3.65;;;18.80;99.90;;;;;;5075940;28;20013;-87
2022/06/24 06:00:12;;;;;;;10.95;4.45;;;18.90;99.90;;;;;;5075881;28;20069;-86
2022/06/24 06:02:57;;;;;;;7.68;4.18;;;18.90;99.90;;;;;;5072418;28;20021;-87
2022/06/24 06:05:26;;;;;;;7.85;4.00;;;18.90;99.90;;;;;;5068222;28;20079;-87
2022/06/24 06:07:52;;;;;;;8.77;4.30;;;19.00;99.90;;;;;;5062785;28;20053;-86
2022/06/24 06:10:21;;;;;;;11.02;4.03;;;18.90;99.90;;;;;;5073050;28;20013;-88
2022/06/24 06:13:08;;;;;;;11.15;4.05;;;19.00;99.90;;;;;;5076982;28;20014;-87
2022/06/24 06:15:33;;;;;;;10.32;3.80;;;19.00;99.90;;;;;;5074569;28;20021;-87
2022/06/24 06:18:05;;;;;;;9.23;3.92;;;19.10;99.90;;;;;;5076855;28;20056;-89
2022/06/24 06:20:48;;;;;;;11.02;4.20;;;19.10;99.90;;;;;;5070271;28;20041;-87
2022/06/24 06:23:16;;;;;;;9.10;4.50;;;19.10;99.90;;;;;;5061761;28;20051;-87
2022/06/24 06:25:45;;;;;;;14.90;4.72;;;19.10;99.90;;;;;;5063817;28;20009;-87
2022/06/24 06:28:11;;;;;;;7.15;4.03;;;19.00;99.90;;;;;;5074084;28;20014;-88
2022/06/24 06:30:49;;;;;;;10.93;4.03;;;19.00;99.90;;;;;;5075625;28;20018;-86
2022/06/24 06:34:00;;;;;;;7.95;3.80;;;19.10;99.90;;;;;;5074593;28;20437;-88
2022/06/24 06:36:26;;;;;;;15.18;4.72;;;19.10;99.90;;;;;;5073186;28;20045;-93
2022/06/24 06:38:52;;;;;;;11.00;4.60;;;19.10;99.90;;;;;;5073599;28;20017;-90
2022/06/24 06:41:18;;;;;;;12.63;5.28;;;19.10;99.90;;;;;;5070993;28;20051;-87
2022/06/24 06:43:44;;;;;;;9.90;4.25;;;19.10;99.90;;;;;;5071524;28;20012;-86
2022/06/24 06:46:11;;;;;;;10.75;4.95;;;19.00;99.90;;;;;;5062361;28;20507;-86
2022/06/24 06:48:39;;;;;;;10.18;4.40;;;19.00;99.90;;;;;;5058551;28;20028;-85
2022/06/24 06:51:05;;;;;;;;;;;19.00;99.90;;;;;;5058563;28;20642;-86
2022/06/24 06:53:30;;;;;;;11.95;4.85;;;18.90;99.90;;;;;;5063313;28;19955;-87
2022/06/24 06:55:56;;;;;;;11.98;4.28;;;18.90;99.90;;;;;;5063989;28;20422;-94
2022/06/24 06:58:22;;;;;;;11.95;4.78;;;18.90;99.90;;;;;;5068241;28;20024;-88
2022/06/24 07:00:48;;;;;;;14.77;5.15;;;18.90;99.90;;;;;;5071211;28;20040;-94
2022/06/24 07:03:15;;;;;;;11.43;4.68;;;18.90;99.90;;;;;;5063551;28;20419;-94
2022/06/24 07:05:42;;;;;;;8.07;4.68;;;19.00;99.90;;;;;;5060378;28;20472;-86
2022/06/24 07:08:10;;;;;;;8.40;4.70;;;19.10;99.90;;;;;;5059002;28;20024;-86
2022/06/24 07:10:41;;;;;;;9.75;4.85;;;19.20;99.90;;;;;;5062486;28;20025;-93
2022/06/24 07:13:07;;;;;;;7.72;4.35;;;19.30;99.90;;;;;;5067112;28;20055;-88
2022/06/24 07:15:33;;;;;;;11.68;5.18;;;19.20;99.90;;;;;;5070615;28;20025;-89
2022/06/24 07:18:19;;;;;;;9.60;5.22;;;19.20;99.90;;;;;;5075928;28;20548;-92
2022/06/24 07:20:45;;;;;;;9.40;5.55;;;19.10;99.90;;;;;;5066877;28;20052;-93
2022/06/24 07:23:12;;;;;;;10.35;5.47;;;19.10;99.90;;;;;;5069676;28;20397;-86
2022/06/24 07:25:39;;;;;;;9.18;5.20;;;19.10;99.90;;;;;;5063534;28;20032;-87
2022/06/24 07:28:05;;;;;;;10.90;5.22;;;19.10;99.90;;;;;;5066909;28;20013;-86
2022/06/24 07:30:31;;;;;;;13.10;5.35;;;19.00;99.90;;;;;;5074299;28;20017;-87
2022/06/24 07:33:00;;;;;;;11.35;5.80;;;19.00;99.90;;;;;;5075213;28;20017;-87
2022/06/24 07:35:26;;;;;;;11.35;5.53;;;19.10;99.90;;;;;;5072287;28;20013;-90
2022/06/24 07:37:52;;;;;;;11.50;5.22;;;19.10;99.90;;;;;;5073463;28;20094;-87
2022/06/24 07:40:18;;;;;;;12.20;5.80;;;19.20;99.90;;;;;;5057503;28;20036;-86
2022/06/24 07:42:44;;;;;;;12.05;6.13;;;19.40;99.90;;;;;;5057338;28;20037;-87
2022/06/24 07:45:10;;;;;;;16.02;5.63;;;19.50;99.90;;;;;;5067187;28;20033;-90
2022/06/24 07:47:58;;;;;;;11.38;5.45;;;19.60;99.90;;;;;;5072660;28;20021;-87
2022/06/24 07:50:27;;;;;;;10.63;5.45;;;19.60;99.90;;;;;;5074058;28;20100;-94
2022/06/24 07:52:53;;;;;;;8.55;5.22;;;19.50;99.90;;;;;;5067921;28;20037;-87
2022/06/24 07:58:05;;;;;;;14.10;5.22;;;19.30;99.90;;;;;;5055207;28;20028;-87
2022/06/24 08:00:31;;;;;;;12.93;5.38;;;19.20;99.90;;;;;;5072535;28;20040;-87
2022/06/24 08:02:57;;;;;;;9.35;5.30;;;19.30;99.90;;;;;;5075696;28;20041;-87
2022/06/24 08:05:23;;;;;;;9.30;5.22;;;19.40;99.90;;;;;;5075653;28;20017;-89
2022/06/24 08:07:49;;;;;;;6.95;4.57;;;19.60;99.90;;;;;;5070224;28;20023;-95
2022/06/24 08:10:15;;;;;;;9.73;4.82;;;19.70;99.90;;;;;;5068328;28;20021;-95
2022/06/24 08:12:41;;;;;;;13.85;4.93;;;19.70;99.90;;;;;;5068592;28;20027;-88
2022/06/24 08:15:07;;;;;;;7.45;4.32;;;19.60;99.90;;;;;;5070193;28;20020;-85
2022/06/24 08:17:32;;;;;;;9.50;4.13;;;19.50;99.90;;;;;;5070151;28;20013;-87
2022/06/24 08:19:58;;;;;;;11.65;4.45;;;19.50;99.90;;;;;;5068514;28;20040;-93
2022/06/24 08:22:23;;;;;;;8.73;4.57;;;19.60;99.90;;;;;;5069434;28;20041;-86
2022/06/24 08:24:50;;;;;;;8.95;4.32;;;19.80;99.90;;;;;;5064043;28;20033;-92
2022/06/24 08:27:16;;;;;;;11.52;4.40;;;20.10;99.90;;;;;;5066245;28;20025;-94
2022/06/24 08:29:41;;;;;;;10.13;4.10;;;20.20;99.90;;;;;;5060667;28;20060;-89
2022/06/24 08:32:08;;;;;;;11.60;4.45;;;20.40;99.90;;;;;;5061061;28;20021;-86
2022/06/24 08:34:37;;;;;;;8.73;3.80;;;20.50;99.90;;;;;;5061077;28;20112;-86
2022/06/24 08:37:04;;;;;;;6.85;3.40;;;20.60;99.90;;;;;;5068783;28;20013;-94
2022/06/24 08:39:29;;;;;;;8.10;3.90;;;20.50;99.90;;;;;;5068453;28;20044;-86
2022/06/24 08:41:58;;;;;;;7.75;3.97;;;20.40;99.90;;;;;;5073429;28;20021;-87
2022/06/24 08:44:23;;;;;;;6.90;3.53;;;20.50;99.90;;;;;;5067966;28;20052;-89
2022/06/24 08:46:49;;;;;;;7.47;3.40;;;20.40;99.90;;;;;;5067098;28;20087;-88
2022/06/24 08:49:27;;;;;;;6.85;3.35;;;20.50;99.90;;;;;;5071151;28;20016;-88
2022/06/24 08:52:13;;;;;;;5.43;3.33;;;20.50;99.90;;;;;;5067453;28;20035;-87
2022/06/24 08:54:53;;;;;;;6.82;3.60;;;20.50;99.90;;;;;;5064944;28;20020;-94
2022/06/24 08:57:27;;;;;;;10.27;3.90;;;20.50;99.90;;;;;;5073493;28;20017;-94
2022/06/24 08:59:53;;;;;;;5.47;3.70;;;20.50;99.90;;;;;;5068540;28;20051;-86
2022/06/24 09:02:19;;;;;;;7.22;3.65;;;20.50;99.90;;;;;;5063528;28;20045;-86
2022/06/24 09:04:45;;;;;;;5.93;3.33;;;20.50;99.90;;;;;;5064709;28;20047;-86
2022/06/24 09:07:27;;;;;;;6.15;3.33;;;20.40;99.90;;;;;;5066877;28;20472;-87
2022/06/24 09:10:31;;;;;;;7.85;2.97;;;20.40;99.90;;;;;;5073734;28;20028;-88
2022/06/24 09:12:57;;;;;;;9.40;3.25;;;20.50;99.90;;;;;;5068677;28;20103;-86
2022/06/24 09:15:23;;;;;;;6.75;3.88;;;20.50;99.90;;;;;;5070512;28;20028;-86
2022/06/24 09:17:49;;;;;;;6.72;3.38;;;20.50;99.90;;;;;;5074632;28;20013;-86
2022/06/24 09:20:38;;;;;;;8.30;3.88;;;20.50;99.90;;;;;;5075321;28;20024;-87
2022/06/24 09:23:09;;;;;;;8.82;3.70;;;20.50;99.90;;;;;;5071254;28;20036;-93
2022/06/24 09:26:03;;;;;;;7.78;3.60;;;20.40;99.90;;;;;;5070464;28;20051;-85
2022/06/24 09:28:31;;;;;;;6.50;3.75;;;20.30;99.90;;;;;;5067097;28;20025;-87
2022/06/24 09:31:06;;;;;;;9.32;3.92;;;20.20;99.90;;;;;;5066459;28;20021;-87
2022/06/24 09:33:39;;;;;;;9.48;4.13;;;20.00;99.90;;;;;;5063551;28;20021;-86
2022/06/24 09:36:06;;;;;;;6.72;3.92;;;19.80;99.90;;;;;;5046938;28;20025;-89
2022/06/24 09:38:53;;;;;;;9.65;3.83;;;19.70;99.90;;;;;;5066015;28;20098;-94
2022/06/24 09:41:19;;;;;;;8.38;4.32;;;19.50;99.90;;;;;;5050944;28;20025;-92
2022/06/24 09:43:44;;;;;;;11.18;4.60;;;19.40;99.90;;;;;;5055288;28;20025;-88
2022/06/24 09:46:18;;;;;;;9.90;4.53;;;19.30;99.90;;;;;;5068475;28;20412;-89
2022/06/24 09:48:43;;;;;;;8.05;4.32;;;19.30;99.90;;;;;;5052547;28;20024;-90
2022/06/24 09:51:09;;;;;;;9.82;4.93;;;19.30;99.90;;;;;;5053594;28;20087;-88
2022/06/24 09:53:45;;;;;;;5.45;3.80;;;19.00;99.90;;;;;;5074000;28;20077;-85
2022/06/24 09:56:40;;;;;;;7.30;4.28;;;19.00;99.90;;;;;;5073373;28;20043;-88
2022/06/24 10:01:53;;;;;;;6.68;4.07;;;18.70;99.90;;;;;;5057245;28;20095;-87
2022/06/24 10:04:20;;;;;;;5.00;3.85;;;18.60;99.90;;;;;;5055349;28;20052;-88
2022/06/24 10:07:06;;;;;;;6.45;3.50;;;18.60;99.90;;;;;;5073043;28;20052;-87
2022/06/24 10:09:37;;;;;;;6.03;3.47;;;18.60;99.90;;;;;;5065091;28;20492;-86
2022/06/24 10:12:04;;;;;;;6.53;3.72;;;18.80;99.90;;;;;;5063037;28;20021;-86
2022/06/24 10:14:30;;;;;;;4.43;3.55;;;18.90;99.90;;;;;;5074014;28;20044;-88
2022/06/24 10:17:08;;;;;;;8.75;4.05;;;19.20;99.90;;;;;;5075892;28;20041;-88
2022/06/24 10:19:38;;;;;;;4.82;3.70;;;19.40;99.90;;;;;;5068151;28;20055;-88
2022/06/24 10:22:06;;;;;;;6.30;3.95;;;19.70;99.90;;;;;;5067679;28;20021;-92
2022/06/24 10:24:45;;;;;;;7.82;3.53;;;19.90;99.90;;;;;;5057655;28;20029;-88
2022/06/24 10:27:11;;;;;;;9.40;3.97;;;19.40;99.90;;;;;;5063404;28;20049;-89
2022/06/24 10:29:37;;;;;;;7.72;3.70;;;20.00;99.90;;;;;;5056709;28;20036;-92
2022/06/24 10:32:05;;;;;;;4.85;3.55;;;20.00;99.90;;;;;;5055586;28;20457;-93
2022/06/24 10:34:34;;;;;;;8.35;4.05;;;19.90;99.90;;;;;;5053367;28;20021;-90
2022/06/24 10:37:02;;;;;;;10.05;4.13;;;19.90;99.90;;;;;;5054740;28;20430;-88
2022/06/24 10:39:31;;;;;;;9.65;4.15;;;20.00;99.90;;;;;;5052415;28;20029;-88
2022/06/24 10:42:01;;;;;;;11.48;4.38;;;20.10;99.90;;;;;;5054654;28;20036;-86
2022/06/24 10:44:31;;;;;;;9.20;3.88;;;20.20;99.90;;;;;;5053694;28;20017;-86
2022/06/24 10:47:10;;;;;;;9.57;3.90;;;20.00;99.90;;;;;;5054040;28;20021;-87
2022/06/24 10:49:51;;;;;;;6.90;4.00;;;19.90;99.90;;;;;;5051946;28;20047;-93
2022/06/24 10:52:48;;;;;;;7.43;4.00;;;19.90;99.90;;;;;;5056394;28;20989;-93
2022/06/24 10:55:28;;;;;;;9.02;3.33;;;19.80;99.90;;;;;;5054071;28;20541;-92
2022/06/24 10:58:05;;;;;;;7.28;3.20;;;19.70;99.90;;;;;;5054138;28;20025;-90
2022/06/24 11:00:36;;;;;;;7.53;3.33;;;19.50;99.90;;;;;;5044926;28;20107;-92
2022/06/24 11:03:06;;;;;;;6.20;3.25;;;19.40;99.90;;;;;;5047551;28;20032;-92
2022/06/24 11:05:33;;;;;;;8.00;3.25;;;19.40;99.90;;;;;;5053465;28;20021;-88
2022/06/24 11:07:59;;;;;;;11.13;3.80;;;19.50;99.90;;;;;;5052427;28;20032;-87
2022/06/24 11:10:29;;;;;;;7.10;3.22;;;19.70;99.90;;;;;;5052164;28;20021;-94
2022/06/24 11:13:00;;;;;;;7.30;3.47;;;19.90;99.90;;;;;;5053255;28;20499;-91
2022/06/24 11:16:04;;;;;;;7.63;3.55;;;19.90;99.90;;;;;;5052772;28;20438;-92
2022/06/24 11:18:34;;;;;;;12.15;3.28;;;20.10;99.90;;;;;;5052782;28;20025;-93
2022/06/24 11:21:02;;;;;;;5.55;3.00;;;20.30;99.90;;;;;;5051734;28;20223;-91
2022/06/24 11:23:34;;;;;;;7.53;3.03;;;20.60;99.90;;;;;;5052419;28;20389;-86
2022/06/24 11:26:13;;;;;;;9.25;3.00;;;20.70;99.90;;;;;;5051888;28;20036;-85
2022/06/24 11:28:39;;;;;;;12.75;3.05;;;20.50;99.90;;;;;;5059670;28;20539;-91
2022/06/24 11:31:24;;;;;;;8.05;3.17;;;20.30;99.90;;;;;;5056820;28;20025;-94
2022/06/24 11:34:05;;;;;;;6.97;2.88;;;20.30;99.90;;;;;;5051692;28;20025;-88
2022/06/24 11:36:31;;;;;;;11.00;3.08;;;20.40;99.90;;;;;;5051886;28;20044;-91
2022/06/24 11:39:11;;;;;;;10.48;2.95;;;20.70;99.90;;;;;;5052450;28;20024;-89
2022/06/24 11:41:48;;;;;;;6.30;2.80;;;20.80;99.90;;;;;;5060720;28;20045;-92
2022/06/24 11:44:36;;;;;;;9.00;2.87;;;20.90;99.90;;;;;;5066616;28;20005;-94
2022/06/24 11:47:08;;;;;;;5.43;2.67;;;20.50;99.90;;;;;;5057893;28;20106;-93
2022/06/24 11:49:35;;;;;;;8.88;3.08;;;20.30;99.90;;;;;;5054032;28;20559;-94
2022/06/24 11:52:02;;;;;;;6.65;2.80;;;20.30;99.90;;;;;;5056760;28;20033;-93
2022/06/24 11:54:31;;;;;;;10.93;3.38;;;20.20;99.90;;;;;;5055317;28;20028;-93
2022/06/24 11:56:59;;;;;;;9.05;2.97;;;20.30;99.90;;;;;;5052742;28;20040;-92
2022/06/24 11:59:27;;;;;;;8.65;2.92;;;20.60;99.90;;;;;;5052925;28;20021;-93
2022/06/24 12:01:54;;;;;;;7.95;2.70;;;20.80;99.90;;;;;;5051992;28;20543;-88
2022/06/24 12:04:23;;;;;;;11.02;2.78;;;20.90;99.90;;;;;;5054283;28;20025;-90
2022/06/24 12:06:49;;;;;;;9.20;2.45;;;21.10;99.90;;;;;;5060652;28;20020;-89
2022/06/24 12:09:15;;;;;;;7.22;2.40;;;21.20;99.90;;;;;;5057815;28;20021;-90
2022/06/24 12:11:43;;;;;;;8.15;2.80;;;21.20;99.90;;;;;;5056104;28;20033;-91
2022/06/24 12:14:11;;;;;;;5.67;2.10;;;21.10;99.90;;;;;;5050683;28;20477;-90
2022/06/24 12:17:00;;;;;;;11.25;2.38;;;21.10;99.90;;;;;;5050635;28;20103;-88
2022/06/24 12:19:28;;;;;;;11.32;3.17;;;21.30;99.90;;;;;;5045637;28;20021;-85
2022/06/24 12:22:11;;;;;;;6.70;2.40;;;21.30;99.90;;;;;;5048520;28;20029;-88
2022/06/24 12:24:38;;;;;;;7.10;2.42;;;21.20;99.90;;;;;;5045730;28;20028;-85
2022/06/24 12:27:05;;;;;;;11.63;2.15;;;21.30;99.90;;;;;;5043051;28;20036;-84
2022/06/24 12:29:37;;;;;;;9.18;1.95;;;21.60;99.90;;;;;;5047832;28;20064;-84
2022/06/24 12:32:04;;;;;;;11.88;2.78;;;21.60;99.90;;;;;;5042911;28;20024;-85
2022/06/24 12:34:35;;;;;;;10.27;2.37;;;21.40;99.90;;;;;;5044017;28;20052;-84
2022/06/24 12:37:04;;;;;;;15.27;2.58;;;21.40;99.90;;;;;;5042670;28;20279;-85
2022/06/24 12:39:30;;;;;;;12.10;2.40;;;21.30;99.90;;;;;;5049277;28;20025;-84
2022/06/24 12:41:56;;;;;;;19.05;2.75;;;21.40;99.90;;;;;;5047848;28;20071;-85
2022/06/24 12:44:22;;;;;;;10.93;2.63;;;21.30;99.90;;;;;;5049060;28;20044;-85
2022/06/24 12:52:36;;;;;;;9.88;2.15;;;21.10;99.90;;;;;;5049524;28;20020;-88
2022/06/24 12:55:03;;;;;;;9.27;2.17;;;21.20;99.90;;;;;;5045722;28;20115;-84
2022/06/24 12:57:29;;;;;;;8.33;2.23;;;21.20;99.90;;;;;;5051635;28;20427;-84
2022/06/24 12:59:55;;;;;;;7.57;2.00;;;21.20;99.90;;;;;;5050449;28;20349;-90
2022/06/24 13:02:20;;;;;;;3.75;1.70;;;21.40;99.90;;;;;;5050311;28;20473;-92
2022/06/24 13:04:47;;;;;;;7.32;1.67;;;21.60;99.90;;;;;;5050313;28;20021;-91
2022/06/24 13:07:12;;;;;;;4.35;1.67;;;21.70;99.90;;;;;;5050347;28;20056;-89
2022/06/24 13:09:38;;;;;;;5.38;1.77;;;21.60;99.90;;;;;;5049203;28;20083;-89